createdAt,value
2022-09-23T00:01:02.555Z,9.99
2022-09-23T00:03:31.127Z,9.72
2022-09-23T00:06:10.758Z,9.96
2022-09-23T00:08:38.367Z,9.86
2022-09-23T00:11:07.763Z,10.07
2022-09-23T00:13:35.734Z,9.88
2022-09-23T00:16:04.859Z,10.03
2022-09-23T00:18:31.778Z,9.92
2022-09-23T00:20:58.558Z,9.77
2022-09-23T00:23:25.295Z,9.75
2022-09-23T00:25:59.740Z,9.96
2022-09-23T00:28:26.628Z,10.03
2022-09-23T00:30:53.386Z,10.08
2022-09-23T00:33:20.446Z,9.97
2022-09-23T00:35:47.812Z,9.91
2022-09-23T00:38:14.612Z,9.91
2022-09-23T00:40:46.165Z,9.88
2022-09-23T00:43:14.682Z,9.68
2022-09-23T00:45:47.497Z,9.54
2022-09-23T00:48:20.137Z,9.51
2022-09-23T00:50:54.278Z,9.69
2022-09-23T00:53:24.146Z,9.47
2022-09-23T00:55:57.315Z,9.19
2022-09-23T00:58:26.959Z,9.06
2022-09-23T01:00:54.595Z,9.18
2022-09-23T01:03:23.016Z,9.26
2022-09-23T01:05:50.355Z,9.37
2022-09-23T01:08:17.642Z,9.49
2022-09-23T01:11:03.461Z,9.51
2022-09-23T01:13:47.893Z,8.91
2022-09-23T01:16:33.459Z,9.00
2022-09-23T01:19:18.263Z,9.11
2022-09-23T01:22:05.013Z,9.27
2022-09-23T01:24:48.238Z,9.21
2022-09-23T01:27:23.256Z,9.40
2022-09-23T01:30:07.438Z,9.16
2022-09-23T01:32:43.283Z,9.38
2022-09-23T01:35:22.815Z,9.33
2022-09-23T01:38:08.403Z,9.16
2022-09-23T01:40:59.898Z,9.21
2022-09-23T01:43:57.225Z,9.22
2022-09-23T01:46:32.335Z,9.21
2022-09-23T01:49:37.351Z,9.40
2022-09-23T01:52:30.023Z,9.14
2022-09-23T01:55:11.215Z,9.10
2022-09-23T01:57:44.786Z,9.07
2022-09-23T02:00:17.785Z,8.64
2022-09-23T02:03:00.475Z,8.75
2022-09-23T02:05:33.908Z,8.76
2022-09-23T02:08:05.055Z,8.60
2022-09-23T02:10:36.066Z,8.52
2022-09-23T02:13:07.765Z,8.61
2022-09-23T02:15:40.408Z,8.62
2022-09-23T02:18:12.480Z,8.62
2022-09-23T02:20:43.406Z,8.60
2022-09-23T02:23:15.799Z,8.16
2022-09-23T02:25:42.503Z,7.91
2022-09-23T02:28:13.644Z,7.75
2022-09-23T02:30:49.215Z,7.83
2022-09-23T02:33:25.207Z,7.87
2022-09-23T02:35:55.537Z,8.42
2022-09-23T02:38:45.297Z,8.72
2022-09-23T02:41:22.654Z,8.83
2022-09-23T02:43:55.330Z,8.86
2022-09-23T02:46:23.263Z,8.85
2022-09-23T02:48:56.929Z,8.82
2022-09-23T02:51:27.979Z,8.52
2022-09-23T02:53:57.678Z,8.62
2022-09-23T02:56:24.631Z,8.85
2022-09-23T02:58:53.564Z,8.97
2022-09-23T03:01:40.818Z,8.79
2022-09-23T03:04:21.838Z,8.91
2022-09-23T03:06:54.483Z,8.81
2022-09-23T03:09:29.865Z,8.45
2022-09-23T03:12:11.268Z,8.48
2022-09-23T03:14:41.035Z,8.52
2022-09-23T03:17:31.796Z,8.72
2022-09-23T03:20:07.376Z,8.75
2022-09-23T03:22:39.943Z,8.67
2022-09-23T03:25:09.841Z,8.32
2022-09-23T03:27:37.350Z,8.32
2022-09-23T03:30:05.459Z,8.55
2022-09-23T03:32:33.030Z,8.59
2022-09-23T03:35:01.703Z,8.54
2022-09-23T03:38:02.719Z,8.34
2022-09-23T03:40:35.645Z,8.24
2022-09-23T03:43:04.695Z,8.16
2022-09-23T03:45:33.645Z,8.14
2022-09-23T03:48:01.488Z,8.25
2022-09-23T03:50:29.045Z,7.89
2022-09-23T03:52:56.060Z,7.92
2022-09-23T03:55:22.818Z,8.08
2022-09-23T03:57:49.606Z,8.16
2022-09-23T04:00:16.365Z,8.12
2022-09-23T04:02:43.934Z,7.87
2022-09-23T04:05:12.338Z,7.96
2022-09-23T04:07:39.539Z,7.95
2022-09-23T04:10:06.791Z,8.03
2022-09-23T04:12:33.532Z,8.02
2022-09-23T04:15:00.272Z,7.76
2022-09-23T04:17:27.083Z,7.95
2022-09-23T04:19:53.805Z,7.83
2022-09-23T04:22:20.591Z,7.71
2022-09-23T04:24:47.293Z,7.78
2022-09-23T04:27:14.080Z,7.78
2022-09-23T04:29:40.778Z,7.65
2022-09-23T04:32:07.564Z,7.78
2022-09-23T04:34:34.297Z,7.57
2022-09-23T04:37:01.008Z,7.32
2022-09-23T04:39:27.723Z,6.98
2022-09-23T04:41:54.534Z,7.25
2022-09-23T04:44:21.359Z,7.23
2022-09-23T04:46:49.386Z,7.08
2022-09-23T04:49:16.404Z,6.93
2022-09-23T04:51:43.766Z,7.10
2022-09-23T04:54:12.012Z,7.03
2022-09-23T04:56:39.823Z,7.28
2022-09-23T04:59:07.601Z,7.53
2022-09-23T05:01:36.362Z,7.09
2022-09-23T05:04:06.088Z,6.79
2022-09-23T05:06:37.207Z,6.98
2022-09-23T05:09:08.137Z,6.67
2022-09-23T05:11:34.979Z,7.10
2022-09-23T05:14:01.988Z,7.28
2022-09-23T05:16:29.464Z,7.36
2022-09-23T05:18:56.332Z,7.22
2022-09-23T05:21:24.572Z,7.13
2022-09-23T05:23:58.902Z,7.18
2022-09-23T05:26:28.008Z,7.00
2022-09-23T05:28:55.224Z,7.02
2022-09-23T05:31:24.176Z,7.21
2022-09-23T05:34:04.856Z,7.22
2022-09-23T05:36:37.967Z,7.11
2022-09-23T05:39:06.794Z,6.97
2022-09-23T05:41:34.098Z,6.98
2022-09-23T05:44:01.615Z,6.86
2022-09-23T05:46:30.000Z,6.88
2022-09-23T05:49:02.127Z,7.08
2022-09-23T05:51:31.372Z,7.17
2022-09-23T05:53:59.008Z,7.19
2022-09-23T05:56:27.552Z,6.87
2022-09-23T05:58:56.796Z,6.49
2022-09-23T06:01:25.581Z,6.74
2022-09-23T06:03:53.498Z,7.09
2022-09-23T06:06:26.160Z,7.02
2022-09-23T06:08:52.888Z,7.09
2022-09-23T06:11:21.483Z,6.89
2022-09-23T06:13:49.423Z,6.91
2022-09-23T06:16:16.567Z,6.81
2022-09-23T06:18:45.139Z,6.77
2022-09-23T06:21:16.802Z,7.08
2022-09-23T06:23:44.341Z,6.86
2022-09-23T06:26:13.658Z,6.86
2022-09-23T06:28:42.926Z,6.82
2022-09-23T06:31:16.844Z,6.93
2022-09-23T06:33:45.239Z,7.05
2022-09-23T06:36:16.193Z,7.19
2022-09-23T06:38:49.338Z,7.15
2022-09-23T06:41:16.241Z,7.25
2022-09-23T06:43:42.966Z,7.28
2022-09-23T06:46:15.984Z,7.38
2022-09-23T06:48:46.445Z,7.41
2022-09-23T06:51:19.226Z,7.34
2022-09-23T06:53:47.436Z,7.40
2022-09-23T06:56:17.388Z,7.44
2022-09-23T06:58:44.149Z,7.66
2022-09-23T07:01:16.147Z,7.58
2022-09-23T07:03:44.484Z,7.74
2022-09-23T07:06:11.630Z,7.66
2022-09-23T07:08:38.433Z,7.64
2022-09-23T07:11:07.253Z,7.90
2022-09-23T07:13:34.347Z,7.96
2022-09-23T07:16:02.245Z,7.87
2022-09-23T07:18:36.673Z,8.13
2022-09-23T07:21:08.964Z,7.79
2022-09-23T07:23:37.804Z,7.98
2022-09-23T07:26:05.397Z,8.50
2022-09-23T07:28:32.582Z,8.72
2022-09-23T07:31:04.532Z,8.92
2022-09-23T07:33:32.948Z,9.02
2022-09-23T07:36:05.395Z,9.04
2022-09-23T07:38:32.202Z,8.97
2022-09-23T07:41:10.308Z,9.33
2022-09-23T07:43:37.911Z,9.61
2022-09-23T07:46:08.364Z,9.73
2022-09-23T07:48:36.147Z,9.77
2022-09-23T07:51:15.348Z,9.99
2022-09-23T07:53:42.174Z,10.05
2022-09-23T07:56:08.890Z,10.22
2022-09-23T07:58:35.642Z,10.04
2022-09-23T08:01:10.316Z,10.10
2022-09-23T08:03:37.750Z,10.34
2022-09-23T08:06:14.003Z,10.36
2022-09-23T08:08:43.787Z,10.32
2022-09-23T08:11:13.382Z,10.11
2022-09-23T08:13:40.828Z,9.85
2022-09-23T08:16:07.675Z,10.02
2022-09-23T08:18:34.816Z,9.91
2022-09-23T08:21:01.835Z,9.97
2022-09-23T08:23:33.374Z,10.07
2022-09-23T08:26:02.498Z,10.22
2022-09-23T08:28:30.932Z,10.27
2022-09-23T08:30:57.744Z,10.37
2022-09-23T08:33:24.673Z,10.84
2022-09-23T08:35:52.442Z,10.69
2022-09-23T08:38:20.106Z,10.71
2022-09-23T08:40:49.669Z,10.86
2022-09-23T08:43:27.634Z,11.03
2022-09-23T08:45:56.145Z,11.36
2022-09-23T08:48:29.879Z,10.96
2022-09-23T08:51:02.625Z,11.11
2022-09-23T08:53:33.269Z,11.35
2022-09-23T08:56:03.491Z,11.23
2022-09-23T08:58:30.880Z,11.23
2022-09-23T09:01:23.776Z,11.29
2022-09-23T09:04:16.833Z,11.24
2022-09-23T09:06:54.058Z,11.30
2022-09-23T09:09:27.499Z,11.35
2022-09-23T09:12:08.995Z,11.44
2022-09-23T09:14:35.783Z,11.41
2022-09-23T09:17:08.209Z,11.64
2022-09-23T09:19:53.685Z,11.96
2022-09-23T09:22:34.222Z,11.95
2022-09-23T09:25:14.466Z,12.00
2022-09-23T09:27:41.528Z,12.02
2022-09-23T09:30:14.558Z,12.00
2022-09-23T09:33:17.827Z,12.22
2022-09-23T09:36:08.939Z,12.14
2022-09-23T09:38:36.434Z,12.42
2022-09-23T09:41:13.114Z,12.49
2022-09-23T09:43:48.500Z,12.70
2022-09-23T09:46:49.337Z,12.75
2022-09-23T09:49:25.526Z,12.76
2022-09-23T09:52:26.849Z,12.92
2022-09-23T09:54:53.562Z,13.08
2022-09-23T09:57:35.126Z,13.13
2022-09-23T10:00:21.731Z,13.31
2022-09-23T10:02:56.653Z,13.39
2022-09-23T10:05:26.889Z,13.50
2022-09-23T10:07:54.390Z,13.41
2022-09-23T10:10:33.673Z,13.33
2022-09-23T10:13:15.009Z,13.23
2022-09-23T10:15:44.904Z,13.40
2022-09-23T10:18:21.163Z,13.41
2022-09-23T10:20:48.373Z,13.59
2022-09-23T10:23:22.134Z,13.65
2022-09-23T10:26:00.343Z,13.91
2022-09-23T10:28:41.258Z,13.84
2022-09-23T10:31:12.662Z,14.07
2022-09-23T10:33:50.466Z,14.27
2022-09-23T10:36:18.140Z,14.38
2022-09-23T10:38:54.133Z,14.53
2022-09-23T10:41:53.292Z,14.94
2022-09-23T10:45:30.874Z,14.98
2022-09-23T10:48:02.263Z,14.64
2022-09-23T10:50:46.083Z,15.02
2022-09-23T10:53:36.541Z,14.67
2022-09-23T10:56:28.500Z,14.73
2022-09-23T10:59:21.522Z,14.37
2022-09-23T11:02:28.815Z,14.40
2022-09-23T11:05:19.042Z,14.57
2022-09-23T11:07:49.978Z,14.84
2022-09-23T11:10:45.839Z,14.76
2022-09-23T11:13:37.436Z,14.58
2022-09-23T11:16:31.708Z,14.77
2022-09-23T11:19:05.110Z,14.84
2022-09-23T11:22:20.175Z,14.98
2022-09-23T11:25:05.306Z,14.93
2022-09-23T11:27:54.350Z,14.68
2022-09-23T11:30:21.469Z,14.53
2022-09-23T11:32:56.893Z,14.54
2022-09-23T11:35:44.803Z,14.63
2022-09-23T11:38:15.381Z,14.80
2022-09-23T11:40:46.672Z,14.86
2022-09-23T11:43:21.717Z,14.85
2022-09-23T11:46:03.273Z,14.83
2022-09-23T11:48:49.971Z,14.80
2022-09-23T11:51:27.120Z,15.18
2022-09-23T11:54:00.707Z,15.30
2022-09-23T11:56:37.639Z,15.36
2022-09-23T11:59:40.471Z,15.41
2022-09-23T12:02:40.985Z,15.36
2022-09-23T12:05:17.903Z,15.52
2022-09-23T12:08:06.417Z,15.23
2022-09-23T12:10:54.732Z,15.17
2022-09-23T12:13:37.949Z,15.29
2022-09-23T12:16:32.645Z,15.62
2022-09-23T12:19:42.931Z,15.62
2022-09-23T12:22:18.592Z,15.78
2022-09-23T12:24:58.259Z,16.14
2022-09-23T12:27:37.974Z,16.53
2022-09-23T12:30:13.040Z,16.96
2022-09-23T12:32:39.901Z,16.77
2022-09-23T12:35:07.792Z,16.95
2022-09-23T12:37:35.640Z,16.60
2022-09-23T12:40:09.926Z,16.61
2022-09-23T12:42:41.517Z,16.39
2022-09-23T12:45:32.590Z,16.58
2022-09-23T12:48:01.085Z,16.08
2022-09-23T12:50:46.541Z,16.17
2022-09-23T12:53:34.938Z,16.66
2022-09-23T12:56:15.366Z,16.54
2022-09-23T12:58:42.196Z,16.33
2022-09-23T13:01:18.562Z,16.62
2022-09-23T13:04:17.275Z,16.32
2022-09-23T13:06:58.751Z,16.07
2022-09-23T13:09:31.160Z,15.95
2022-09-23T13:12:00.738Z,15.40
2022-09-23T13:14:29.083Z,15.28
2022-09-23T13:16:58.415Z,15.48
2022-09-23T13:19:28.256Z,15.31
2022-09-23T13:21:55.007Z,14.86
2022-09-23T13:24:31.311Z,14.78
2022-09-23T13:27:13.310Z,14.54
2022-09-23T13:29:45.487Z,14.62
2022-09-23T13:32:15.146Z,14.59
2022-09-23T13:34:44.324Z,14.63
2022-09-23T13:37:22.725Z,14.48
2022-09-23T13:39:50.285Z,14.59
2022-09-23T13:42:27.217Z,14.80
2022-09-23T13:44:57.860Z,14.61
2022-09-23T13:47:27.975Z,14.60
2022-09-23T13:49:54.877Z,14.53
2022-09-23T13:52:27.303Z,14.49
2022-09-23T13:54:54.300Z,14.71
2022-09-23T13:57:32.128Z,15.10
2022-09-23T14:00:13.952Z,15.04
2022-09-23T14:02:44.422Z,15.73
2022-09-23T14:05:12.728Z,16.61
2022-09-23T14:07:39.753Z,16.89
2022-09-23T14:10:08.167Z,17.62
2022-09-23T14:12:39.274Z,17.84
2022-09-23T14:15:07.313Z,18.85
2022-09-23T14:17:34.066Z,18.74
2022-09-23T14:20:01.110Z,18.94
2022-09-23T14:22:29.247Z,17.10
2022-09-23T14:24:56.792Z,16.95
2022-09-23T14:27:36.185Z,17.33
2022-09-23T14:30:04.050Z,17.44
2022-09-23T14:32:31.144Z,16.92
2022-09-23T14:35:01.077Z,17.60
2022-09-23T14:37:55.655Z,16.96
2022-09-23T14:40:26.305Z,16.16
2022-09-23T14:43:04.933Z,16.34
2022-09-23T14:45:37.744Z,15.82
2022-09-23T14:48:09.672Z,15.79
2022-09-23T14:50:36.960Z,15.65
2022-09-23T14:53:04.669Z,17.24
2022-09-23T14:55:31.695Z,17.78
2022-09-23T14:58:06.510Z,16.42
2022-09-23T15:00:33.290Z,15.76
2022-09-23T15:03:02.165Z,15.67
2022-09-23T15:05:40.119Z,15.63
2022-09-23T15:08:07.575Z,15.48
2022-09-23T15:10:40.075Z,15.84
2022-09-23T15:13:19.247Z,15.45
2022-09-23T15:15:46.441Z,15.73
2022-09-23T15:18:22.875Z,15.67
2022-09-23T15:20:52.344Z,15.93
2022-09-23T15:23:40.944Z,15.49
2022-09-23T15:26:47.270Z,15.54
2022-09-23T15:29:14.194Z,15.16
2022-09-23T15:31:41.362Z,15.09
2022-09-23T15:34:10.769Z,14.89
2022-09-23T15:36:38.610Z,14.99
2022-09-23T15:39:07.169Z,14.84
2022-09-23T15:41:34.048Z,14.70
2022-09-23T15:44:13.835Z,14.72
2022-09-23T15:46:45.732Z,14.65
2022-09-23T15:49:27.130Z,14.33
2022-09-23T15:51:54.510Z,14.55
2022-09-23T15:54:21.237Z,14.35
2022-09-23T15:56:48.010Z,14.13
2022-09-23T15:59:14.772Z,14.26
2022-09-23T16:01:42.390Z,14.23
2022-09-23T16:04:10.305Z,14.38
2022-09-23T16:06:37.645Z,14.15
2022-09-23T16:09:04.450Z,14.22
2022-09-23T16:11:34.058Z,14.06
2022-09-23T16:14:00.882Z,14.31
2022-09-23T16:16:29.141Z,14.28
2022-09-23T16:18:55.968Z,14.65
2022-09-23T16:21:25.253Z,14.47
2022-09-23T16:23:53.474Z,14.61
2022-09-23T16:26:21.734Z,14.41
2022-09-23T16:28:49.629Z,14.21
2022-09-23T16:31:16.918Z,14.02
2022-09-23T16:33:48.136Z,14.23
2022-09-23T16:36:23.656Z,13.90
2022-09-23T16:38:50.998Z,14.35
2022-09-23T16:41:17.940Z,14.06
2022-09-23T16:43:44.766Z,14.12
2022-09-23T16:46:13.072Z,13.90
2022-09-23T16:48:40.946Z,14.02
2022-09-23T16:51:08.946Z,14.23
2022-09-23T16:53:37.674Z,14.13
2022-09-23T16:56:09.546Z,13.85
2022-09-23T16:58:37.176Z,13.99
2022-09-23T17:01:25.066Z,14.08
2022-09-23T17:03:52.320Z,13.95
2022-09-23T17:06:19.453Z,14.13
2022-09-23T17:08:48.267Z,14.13
2022-09-23T17:11:16.590Z,14.12
2022-09-23T17:13:44.287Z,14.12
2022-09-23T17:16:21.645Z,13.88
2022-09-23T17:18:48.992Z,13.85
2022-09-23T17:21:15.843Z,13.62
2022-09-23T17:23:43.187Z,13.53
2022-09-23T17:26:10.126Z,13.54
2022-09-23T17:28:37.010Z,13.49
2022-09-23T17:31:05.670Z,13.42
2022-09-23T17:33:35.381Z,13.34
2022-09-23T17:36:07.270Z,13.30
2022-09-23T17:38:35.339Z,13.14
2022-09-23T17:41:02.374Z,12.94
2022-09-23T17:43:31.458Z,12.97
2022-09-23T17:46:06.669Z,13.06
2022-09-23T17:48:35.334Z,12.91
2022-09-23T17:51:05.082Z,12.78
2022-09-23T17:53:33.733Z,13.08
2022-09-23T17:56:04.264Z,12.96
2022-09-23T17:58:32.915Z,12.90
2022-09-23T18:01:00.068Z,12.70
2022-09-23T18:03:28.553Z,12.64
2022-09-23T18:06:05.050Z,12.83
2022-09-23T18:08:31.974Z,12.96
2022-09-23T18:10:58.706Z,12.98
2022-09-23T18:13:25.481Z,12.73
2022-09-23T18:15:52.275Z,12.89
2022-09-23T18:18:19.045Z,12.72
2022-09-23T18:20:46.066Z,12.76
2022-09-23T18:23:12.889Z,12.55
2022-09-23T18:25:40.174Z,12.76
2022-09-23T18:28:07.113Z,12.69
2022-09-23T18:30:33.854Z,12.61
2022-09-23T18:33:01.683Z,12.48
2022-09-23T18:35:28.555Z,12.42
2022-09-23T18:37:56.260Z,12.52
2022-09-23T18:40:23.084Z,12.38
2022-09-23T18:42:50.414Z,12.32
2022-09-23T18:45:17.205Z,12.27
2022-09-23T18:48:02.211Z,12.24
2022-09-23T18:50:43.172Z,12.48
2022-09-23T18:53:10.546Z,12.38
2022-09-23T18:55:37.931Z,12.51
2022-09-23T18:58:07.358Z,12.35
2022-09-23T19:00:35.031Z,12.11
2022-09-23T19:03:02.136Z,12.31
2022-09-23T19:05:29.141Z,12.27
2022-09-23T19:07:55.966Z,12.14
2022-09-23T19:10:22.676Z,12.18
2022-09-23T19:12:49.477Z,11.98
2022-09-23T19:15:16.589Z,11.91
2022-09-23T19:17:44.162Z,12.19
2022-09-23T19:20:10.907Z,12.03
2022-09-23T19:22:37.680Z,12.01
2022-09-23T19:25:04.710Z,11.87
2022-09-23T19:27:31.503Z,11.70
2022-09-23T19:29:58.241Z,11.65
2022-09-23T19:32:26.778Z,11.55
2022-09-23T19:34:53.719Z,11.51
2022-09-23T19:37:58.991Z,11.45
2022-09-23T19:40:25.800Z,11.63
2022-09-23T19:42:55.252Z,11.46
2022-09-23T19:45:22.598Z,11.47
2022-09-23T19:47:58.296Z,11.36
2022-09-23T19:50:25.133Z,11.24
2022-09-23T19:52:52.226Z,11.51
2022-09-23T19:55:20.098Z,11.51
2022-09-23T19:57:47.340Z,11.66
2022-09-23T20:00:15.259Z,11.73
2022-09-23T20:02:42.596Z,11.59
2022-09-23T20:05:11.990Z,11.48
2022-09-23T20:07:41.133Z,11.29
2022-09-23T20:10:11.836Z,11.15
2022-09-23T20:12:40.791Z,11.15
2022-09-23T20:15:08.136Z,11.20
2022-09-23T20:17:35.254Z,11.28
2022-09-23T20:20:02.237Z,10.98
2022-09-23T20:22:33.143Z,11.23
2022-09-23T20:25:01.566Z,11.41
2022-09-23T20:27:31.751Z,11.11
2022-09-23T20:29:59.421Z,11.00
2022-09-23T20:32:27.109Z,10.83
2022-09-23T20:34:54.428Z,10.75
2022-09-23T20:37:21.670Z,10.72
2022-09-23T20:39:48.484Z,10.71
2022-09-23T20:42:16.429Z,10.62
2022-09-23T20:44:44.950Z,10.54
2022-09-23T20:47:15.907Z,10.58
2022-09-23T20:49:44.296Z,10.67
2022-09-23T20:52:12.651Z,10.54
2022-09-23T20:54:39.829Z,10.61
2022-09-23T20:57:07.058Z,10.65
2022-09-23T20:59:34.614Z,10.52
2022-09-23T21:02:02.319Z,10.54
2022-09-23T21:04:30.260Z,10.54
2022-09-23T21:06:58.287Z,10.69
2022-09-23T21:09:27.489Z,10.47
2022-09-23T21:11:55.476Z,10.31
2022-09-23T21:14:23.147Z,10.30
2022-09-23T21:16:54.947Z,10.29
2022-09-23T21:19:21.839Z,10.13
2022-09-23T21:21:48.711Z,10.35
2022-09-23T21:24:51.097Z,10.20
2022-09-23T21:27:03.476Z,10.21
2022-09-23T21:29:30.260Z,10.22
2022-09-23T21:31:57.272Z,10.20
2022-09-23T21:34:28.168Z,10.33
2022-09-23T21:36:55.510Z,10.10
2022-09-23T21:39:22.262Z,9.97
2022-09-23T21:41:49.978Z,9.97
2022-09-23T21:44:16.753Z,10.09
2022-09-23T21:46:43.604Z,10.12
2022-09-23T21:49:10.369Z,10.32
2022-09-23T21:51:41.152Z,10.06
2022-09-23T21:54:12.203Z,9.89
2022-09-23T21:56:39.046Z,9.57
2022-09-23T21:59:07.744Z,9.54
2022-09-23T22:01:40.946Z,9.24
2022-09-23T22:04:14.513Z,9.29
2022-09-23T22:06:41.705Z,8.93
2022-09-23T22:09:12.557Z,8.75
2022-09-23T22:11:58.757Z,9.10
2022-09-23T22:14:26.552Z,9.25
2022-09-23T22:16:57.570Z,9.34
2022-09-23T22:19:26.968Z,9.22
2022-09-23T22:21:54.040Z,9.39
2022-09-23T22:24:21.025Z,9.28
2022-09-23T22:26:48.011Z,9.22
2022-09-23T22:29:34.470Z,9.32
2022-09-23T22:32:20.924Z,9.62
2022-09-23T22:34:51.363Z,9.65
2022-09-23T22:37:25.802Z,9.53
2022-09-23T22:39:53.260Z,9.34
2022-09-23T22:42:21.928Z,9.47
2022-09-23T22:44:49.200Z,9.65
2022-09-23T22:47:18.125Z,9.66
2022-09-23T22:49:46.408Z,9.47
2022-09-23T22:52:14.990Z,9.24
2022-09-23T22:54:42.351Z,9.42
2022-09-23T22:57:09.805Z,9.29
2022-09-23T22:59:37.527Z,8.73
2022-09-23T23:02:05.176Z,8.39
2022-09-23T23:04:32.260Z,8.30
2022-09-23T23:06:59.093Z,8.71
2022-09-23T23:09:25.985Z,8.82
2022-09-23T23:11:52.770Z,8.71
2022-09-23T23:14:19.812Z,8.76
2022-09-23T23:16:47.533Z,8.54
2022-09-23T23:19:17.178Z,8.67
2022-09-23T23:21:45.302Z,8.62
2022-09-23T23:24:20.840Z,8.51
2022-09-23T23:26:48.350Z,8.45
2022-09-23T23:29:16.461Z,8.58
2022-09-23T23:31:43.693Z,8.71
2022-09-23T23:34:16.283Z,8.61
2022-09-23T23:36:44.041Z,8.75
2022-09-23T23:39:11.078Z,8.71
2022-09-23T23:41:39.613Z,8.71
2022-09-23T23:44:07.842Z,8.48
2022-09-23T23:46:35.845Z,8.31
2022-09-23T23:49:03.291Z,8.08
2022-09-23T23:51:30.196Z,8.18
2022-09-23T23:53:58.915Z,8.32
2022-09-23T23:56:26.875Z,8.17
2022-09-23T23:58:55.476Z,8.34
